sensor_id;sensor_type;location;lat;lon;timestamp;P1;durP1;ratioP1;P2;durP2;ratioP2
357;SDS011;167;47.558;7.602;2024-02-04T00:01:45;0.70;;;0.70;;
357;SDS011;167;47.558;7.602;2024-02-04T00:04:11;1.03;;;1.03;;
357;SDS011;167;47.558;7.602;2024-02-04T00:06:37;1.00;;;1.00;;
357;SDS011;167;47.558;7.602;2024-02-04T00:09:03;1.00;;;1.00;;
357;SDS011;167;47.558;7.602;2024-02-04T00:11:29;0.70;;;0.70;;
357;SDS011;167;47.558;7.602;2024-02-04T00:13:55;0.90;;;0.90;;
357;SDS011;167;47.558;7.602;2024-02-04T00:16:22;0.70;;;0.70;;
357;SDS011;167;47.558;7.602;2024-02-04T00:18:51;0.67;;;0.67;;
357;SDS011;167;47.558;7.602;2024-02-04T00:21:17;0.80;;;0.80;;
357;SDS011;167;47.558;7.602;2024-02-04T00:23:43;0.97;;;0.97;;
357;SDS011;167;47.558;7.602;2024-02-04T00:26:09;0.63;;;0.63;;
357;SDS011;167;47.558;7.602;2024-02-04T00:28:35;0.70;;;0.70;;
357;SDS011;167;47.558;7.602;2024-02-04T00:31:01;0.97;;;0.97;;
357;SDS011;167;47.558;7.602;2024-02-04T00:33:27;0.70;;;0.70;;
357;SDS011;167;47.558;7.602;2024-02-04T00:35:52;0.80;;;0.80;;
357;SDS011;167;47.558;7.602;2024-02-04T00:38:18;0.80;;;0.80;;
357;SDS011;167;47.558;7.602;2024-02-04T00:40:44;0.90;;;0.90;;
357;SDS011;167;47.558;7.602;2024-02-04T00:43:10;0.80;;;0.80;;
357;SDS011;167;47.558;7.602;2024-02-04T00:45:36;0.70;;;0.70;;
357;SDS011;167;47.558;7.602;2024-02-04T00:48:02;1.30;;;1.30;;
357;SDS011;167;47.558;7.602;2024-02-04T00:50:29;0.60;;;0.60;;
357;SDS011;167;47.558;7.602;2024-02-04T00:52:55;0.77;;;0.77;;
357;SDS011;167;47.558;7.602;2024-02-04T00:55:20;0.50;;;0.50;;
357;SDS011;167;47.558;7.602;2024-02-04T00:57:46;0.60;;;0.60;;
357;SDS011;167;47.558;7.602;2024-02-04T01:00:12;0.67;;;0.67;;
357;SDS011;167;47.558;7.602;2024-02-04T01:02:39;0.90;;;0.90;;
357;SDS011;167;47.558;7.602;2024-02-04T01:05:05;0.70;;;0.70;;
357;SDS011;167;47.558;7.602;2024-02-04T01:07:31;0.50;;;0.50;;
357;SDS011;167;47.558;7.602;2024-02-04T01:09:57;0.60;;;0.60;;
357;SDS011;167;47.558;7.602;2024-02-04T01:12:23;1.37;;;0.77;;
357;SDS011;167;47.558;7.602;2024-02-04T01:14:49;0.70;;;0.70;;
357;SDS011;167;47.558;7.602;2024-02-04T01:17:15;0.70;;;0.70;;
357;SDS011;167;47.558;7.602;2024-02-04T01:19:41;0.70;;;0.70;;
357;SDS011;167;47.558;7.602;2024-02-04T01:22:07;0.50;;;0.50;;
357;SDS011;167;47.558;7.602;2024-02-04T01:24:33;0.63;;;0.63;;
357;SDS011;167;47.558;7.602;2024-02-04T01:26:59;0.60;;;0.60;;
357;SDS011;167;47.558;7.602;2024-02-04T01:29:25;0.50;;;0.50;;
357;SDS011;167;47.558;7.602;2024-02-04T01:31:51;0.60;;;0.60;;
357;SDS011;167;47.558;7.602;2024-02-04T01:34:17;0.97;;;0.60;;
357;SDS011;167;47.558;7.602;2024-02-04T01:36:43;5.10;;;0.80;;
357;SDS011;167;47.558;7.602;2024-02-04T01:39:09;1.30;;;0.60;;
357;SDS011;167;47.558;7.602;2024-02-04T01:41:35;0.80;;;0.80;;
357;SDS011;167;47.558;7.602;2024-02-04T01:44:01;0.93;;;0.60;;
357;SDS011;167;47.558;7.602;2024-02-04T01:46:28;0.83;;;0.80;;
357;SDS011;167;47.558;7.602;2024-02-04T01:48:54;0.70;;;0.70;;
357;SDS011;167;47.558;7.602;2024-02-04T01:51:20;0.60;;;0.60;;
357;SDS011;167;47.558;7.602;2024-02-04T01:53:47;0.50;;;0.50;;
357;SDS011;167;47.558;7.602;2024-02-04T01:56:14;0.73;;;0.73;;
357;SDS011;167;47.558;7.602;2024-02-04T01:58:40;0.60;;;0.60;;
357;SDS011;167;47.558;7.602;2024-02-04T02:01:09;0.63;;;0.63;;
357;SDS011;167;47.558;7.602;2024-02-04T02:03:35;0.70;;;0.67;;
357;SDS011;167;47.558;7.602;2024-02-04T02:06:01;0.50;;;0.50;;
357;SDS011;167;47.558;7.602;2024-02-04T02:08:27;0.63;;;0.60;;
357;SDS011;167;47.558;7.602;2024-02-04T02:10:56;0.50;;;0.50;;
357;SDS011;167;47.558;7.602;2024-02-04T02:13:24;0.50;;;0.50;;
357;SDS011;167;47.558;7.602;2024-02-04T02:15:56;0.63;;;0.63;;
357;SDS011;167;47.558;7.602;2024-02-04T02:23:34;0.33;;;0.33;;
357;SDS011;167;47.558;7.602;2024-02-04T02:26:00;0.40;;;0.40;;
357;SDS011;167;47.558;7.602;2024-02-04T02:28:28;0.50;;;0.50;;
357;SDS011;167;47.558;7.602;2024-02-04T02:30:54;0.30;;;0.30;;
357;SDS011;167;47.558;7.602;2024-02-04T02:33:20;0.50;;;0.50;;
357;SDS011;167;47.558;7.602;2024-02-04T02:35:46;0.43;;;0.43;;
357;SDS011;167;47.558;7.602;2024-02-04T02:38:25;0.40;;;0.40;;
357;SDS011;167;47.558;7.602;2024-02-04T02:40:53;0.40;;;0.40;;
357;SDS011;167;47.558;7.602;2024-02-04T02:43:19;0.40;;;0.40;;
357;SDS011;167;47.558;7.602;2024-02-04T02:45:46;0.80;;;0.57;;
357;SDS011;167;47.558;7.602;2024-02-04T02:48:13;0.30;;;0.30;;
357;SDS011;167;47.558;7.602;2024-02-04T02:50:39;0.50;;;0.50;;
357;SDS011;167;47.558;7.602;2024-02-04T02:53:05;0.30;;;0.30;;
357;SDS011;167;47.558;7.602;2024-02-04T02:55:31;0.30;;;0.30;;
357;SDS011;167;47.558;7.602;2024-02-04T02:57:57;0.50;;;0.50;;
357;SDS011;167;47.558;7.602;2024-02-04T03:00:23;0.50;;;0.40;;
357;SDS011;167;47.558;7.602;2024-02-04T03:02:49;0.47;;;0.40;;
357;SDS011;167;47.558;7.602;2024-02-04T03:05:15;0.40;;;0.40;;
357;SDS011;167;47.558;7.602;2024-02-04T03:07:41;1.40;;;0.40;;
357;SDS011;167;47.558;7.602;2024-02-04T03:10:08;0.43;;;0.43;;
357;SDS011;167;47.558;7.602;2024-02-04T03:12:34;0.30;;;0.30;;
357;SDS011;167;47.558;7.602;2024-02-04T03:15:00;0.40;;;0.40;;
357;SDS011;167;47.558;7.602;2024-02-04T03:17:26;0.40;;;0.40;;
357;SDS011;167;47.558;7.602;2024-02-04T03:19:52;0.47;;;0.47;;
357;SDS011;167;47.558;7.602;2024-02-04T03:22:19;0.47;;;0.40;;
357;SDS011;167;47.558;7.602;2024-02-04T03:24:46;0.40;;;0.40;;
357;SDS011;167;47.558;7.602;2024-02-04T03:27:12;1.03;;;0.37;;
357;SDS011;167;47.558;7.602;2024-02-04T03:29:38;0.30;;;0.30;;
357;SDS011;167;47.558;7.602;2024-02-04T03:32:04;0.40;;;0.40;;
357;SDS011;167;47.558;7.602;2024-02-04T03:34:30;0.40;;;0.40;;
357;SDS011;167;47.558;7.602;2024-02-04T03:36:56;0.30;;;0.30;;
357;SDS011;167;47.558;7.602;2024-02-04T03:39:22;0.37;;;0.37;;
357;SDS011;167;47.558;7.602;2024-02-04T03:41:48;0.30;;;0.30;;
357;SDS011;167;47.558;7.602;2024-02-04T03:44:14;0.30;;;0.30;;
357;SDS011;167;47.558;7.602;2024-02-04T03:46:40;0.20;;;0.20;;
357;SDS011;167;47.558;7.602;2024-02-04T03:49:07;0.30;;;0.30;;
357;SDS011;167;47.558;7.602;2024-02-04T03:51:33;0.50;;;0.50;;
357;SDS011;167;47.558;7.602;2024-02-04T03:53:59;0.30;;;0.30;;
357;SDS011;167;47.558;7.602;2024-02-04T03:56:25;0.33;;;0.33;;
357;SDS011;167;47.558;7.602;2024-02-04T03:58:51;0.30;;;0.30;;
357;SDS011;167;47.558;7.602;2024-02-04T04:01:17;0.40;;;0.40;;
357;SDS011;167;47.558;7.602;2024-02-04T04:03:43;0.30;;;0.30;;
357;SDS011;167;47.558;7.602;2024-02-04T04:06:09;0.30;;;0.30;;
357;SDS011;167;47.558;7.602;2024-02-04T04:08:36;0.40;;;0.40;;
357;SDS011;167;47.558;7.602;2024-02-04T04:11:02;0.30;;;0.30;;
357;SDS011;167;47.558;7.602;2024-02-04T04:13:28;0.97;;;0.40;;
357;SDS011;167;47.558;7.602;2024-02-04T04:15:54;0.20;;;0.20;;
357;SDS011;167;47.558;7.602;2024-02-04T04:18:20;0.30;;;0.30;;
357;SDS011;167;47.558;7.602;2024-02-04T04:20:46;0.30;;;0.30;;
357;SDS011;167;47.558;7.602;2024-02-04T04:23:12;0.40;;;0.40;;
357;SDS011;167;47.558;7.602;2024-02-04T04:25:38;0.30;;;0.30;;
357;SDS011;167;47.558;7.602;2024-02-04T04:28:04;0.30;;;0.30;;
357;SDS011;167;47.558;7.602;2024-02-04T04:30:30;0.30;;;0.30;;
357;SDS011;167;47.558;7.602;2024-02-04T04:32:57;0.30;;;0.30;;
357;SDS011;167;47.558;7.602;2024-02-04T04:35:24;0.37;;;0.37;;
357;SDS011;167;47.558;7.602;2024-02-04T04:37:50;0.50;;;0.40;;
357;SDS011;167;47.558;7.602;2024-02-04T04:40:16;0.30;;;0.30;;
357;SDS011;167;47.558;7.602;2024-02-04T04:42:42;0.47;;;0.40;;
357;SDS011;167;47.558;7.602;2024-02-04T04:45:08;0.30;;;0.30;;
357;SDS011;167;47.558;7.602;2024-02-04T04:47:35;0.30;;;0.30;;
357;SDS011;167;47.558;7.602;2024-02-04T04:50:01;0.73;;;0.30;;
357;SDS011;167;47.558;7.602;2024-02-04T04:52:28;0.30;;;0.30;;
357;SDS011;167;47.558;7.602;2024-02-04T04:54:54;0.30;;;0.30;;
357;SDS011;167;47.558;7.602;2024-02-04T04:57:21;0.20;;;0.20;;
357;SDS011;167;47.558;7.602;2024-02-04T04:59:47;0.20;;;0.20;;
357;SDS011;167;47.558;7.602;2024-02-04T05:02:13;0.30;;;0.30;;
357;SDS011;167;47.558;7.602;2024-02-04T05:04:42;0.30;;;0.30;;
357;SDS011;167;47.558;7.602;2024-02-04T05:07:08;0.30;;;0.30;;
357;SDS011;167;47.558;7.602;2024-02-04T05:09:34;0.30;;;0.30;;
357;SDS011;167;47.558;7.602;2024-02-04T05:12:01;0.30;;;0.30;;
357;SDS011;167;47.558;7.602;2024-02-04T05:14:28;0.30;;;0.30;;
357;SDS011;167;47.558;7.602;2024-02-04T05:16:54;0.30;;;0.30;;
357;SDS011;167;47.558;7.602;2024-02-04T05:19:19;0.30;;;0.30;;
357;SDS011;167;47.558;7.602;2024-02-04T05:21:46;0.40;;;0.40;;
357;SDS011;167;47.558;7.602;2024-02-04T05:24:12;0.40;;;0.40;;
357;SDS011;167;47.558;7.602;2024-02-04T05:26:38;0.40;;;0.40;;
357;SDS011;167;47.558;7.602;2024-02-04T05:29:04;0.30;;;0.30;;
357;SDS011;167;47.558;7.602;2024-02-04T05:31:30;0.40;;;0.40;;
357;SDS011;167;47.558;7.602;2024-02-04T05:33:56;0.40;;;0.40;;
357;SDS011;167;47.558;7.602;2024-02-04T05:36:22;0.60;;;0.60;;
357;SDS011;167;47.558;7.602;2024-02-04T05:38:48;0.40;;;0.40;;
357;SDS011;167;47.558;7.602;2024-02-04T05:41:14;0.43;;;0.43;;
357;SDS011;167;47.558;7.602;2024-02-04T05:43:40;0.40;;;0.30;;
357;SDS011;167;47.558;7.602;2024-02-04T05:46:06;0.33;;;0.33;;
357;SDS011;167;47.558;7.602;2024-02-04T05:48:32;0.37;;;0.37;;
357;SDS011;167;47.558;7.602;2024-02-04T05:51:00;0.30;;;0.30;;
357;SDS011;167;47.558;7.602;2024-02-04T05:53:26;0.30;;;0.30;;
357;SDS011;167;47.558;7.602;2024-02-04T05:55:52;0.20;;;0.20;;
357;SDS011;167;47.558;7.602;2024-02-04T05:58:18;0.30;;;0.30;;
357;SDS011;167;47.558;7.602;2024-02-04T06:00:44;0.30;;;0.30;;
357;SDS011;167;47.558;7.602;2024-02-04T06:03:10;0.30;;;0.30;;
357;SDS011;167;47.558;7.602;2024-02-04T06:05:36;0.30;;;0.30;;
357;SDS011;167;47.558;7.602;2024-02-04T06:08:02;0.43;;;0.43;;
357;SDS011;167;47.558;7.602;2024-02-04T06:10:28;0.40;;;0.37;;
357;SDS011;167;47.558;7.602;2024-02-04T06:12:54;0.30;;;0.30;;
357;SDS011;167;47.558;7.602;2024-02-04T06:15:20;0.30;;;0.30;;
357;SDS011;167;47.558;7.602;2024-02-04T06:17:46;0.30;;;0.30;;
357;SDS011;167;47.558;7.602;2024-02-04T06:20:12;0.30;;;0.30;;
357;SDS011;167;47.558;7.602;2024-02-04T06:22:38;0.30;;;0.30;;
357;SDS011;167;47.558;7.602;2024-02-04T06:25:04;0.30;;;0.30;;
357;SDS011;167;47.558;7.602;2024-02-04T06:27:30;0.30;;;0.30;;
357;SDS011;167;47.558;7.602;2024-02-04T06:29:56;0.37;;;0.37;;
357;SDS011;167;47.558;7.602;2024-02-04T06:32:23;0.40;;;0.40;;
357;SDS011;167;47.558;7.602;2024-02-04T06:34:49;0.30;;;0.30;;
357;SDS011;167;47.558;7.602;2024-02-04T06:37:16;0.30;;;0.30;;
357;SDS011;167;47.558;7.602;2024-02-04T06:39:42;0.30;;;0.30;;
357;SDS011;167;47.558;7.602;2024-02-04T06:42:08;0.30;;;0.30;;
357;SDS011;167;47.558;7.602;2024-02-04T06:44:34;0.30;;;0.30;;
357;SDS011;167;47.558;7.602;2024-02-04T06:47:00;0.30;;;0.30;;
357;SDS011;167;47.558;7.602;2024-02-04T06:49:26;0.87;;;0.30;;
357;SDS011;167;47.558;7.602;2024-02-04T06:51:52;0.30;;;0.30;;
357;SDS011;167;47.558;7.602;2024-02-04T06:54:22;0.30;;;0.30;;
357;SDS011;167;47.558;7.602;2024-02-04T06:56:48;0.27;;;0.27;;
357;SDS011;167;47.558;7.602;2024-02-04T06:59:14;1.03;;;0.30;;
357;SDS011;167;47.558;7.602;2024-02-04T07:01:40;0.30;;;0.30;;
357;SDS011;167;47.558;7.602;2024-02-04T07:04:06;0.30;;;0.30;;
357;SDS011;167;47.558;7.602;2024-02-04T07:06:32;0.30;;;0.30;;
357;SDS011;167;47.558;7.602;2024-02-04T07:08:58;0.33;;;0.33;;
357;SDS011;167;47.558;7.602;2024-02-04T07:11:24;0.50;;;0.50;;
357;SDS011;167;47.558;7.602;2024-02-04T07:13:50;0.30;;;0.30;;
357;SDS011;167;47.558;7.602;2024-02-04T07:16:23;0.30;;;0.30;;
357;SDS011;167;47.558;7.602;2024-02-04T07:18:49;2.10;;;0.30;;
357;SDS011;167;47.558;7.602;2024-02-04T07:21:15;0.30;;;0.30;;
357;SDS011;167;47.558;7.602;2024-02-04T07:23:41;0.30;;;0.30;;
357;SDS011;167;47.558;7.602;2024-02-04T07:26:07;0.50;;;0.50;;
357;SDS011;167;47.558;7.602;2024-02-04T07:28:33;0.30;;;0.30;;
357;SDS011;167;47.558;7.602;2024-02-04T07:31:00;0.30;;;0.30;;
357;SDS011;167;47.558;7.602;2024-02-04T07:33:26;0.30;;;0.30;;
357;SDS011;167;47.558;7.602;2024-02-04T07:35:52;0.40;;;0.40;;
357;SDS011;167;47.558;7.602;2024-02-04T07:38:18;0.30;;;0.30;;
357;SDS011;167;47.558;7.602;2024-02-04T07:40:44;0.30;;;0.30;;
357;SDS011;167;47.558;7.602;2024-02-04T07:43:10;0.30;;;0.30;;
357;SDS011;167;47.558;7.602;2024-02-04T07:45:36;0.50;;;0.33;;
357;SDS011;167;47.558;7.602;2024-02-04T07:48:02;0.30;;;0.30;;
357;SDS011;167;47.558;7.602;2024-02-04T07:50:28;0.20;;;0.20;;
357;SDS011;167;47.558;7.602;2024-02-04T07:52:54;0.37;;;0.37;;
357;SDS011;167;47.558;7.602;2024-02-04T07:55:20;0.40;;;0.40;;
357;SDS011;167;47.558;7.602;2024-02-04T07:57:46;0.50;;;0.50;;
357;SDS011;167;47.558;7.602;2024-02-04T08:00:12;0.40;;;0.40;;
357;SDS011;167;47.558;7.602;2024-02-04T08:02:39;0.50;;;0.30;;
357;SDS011;167;47.558;7.602;2024-02-04T08:05:05;0.30;;;0.30;;
357;SDS011;167;47.558;7.602;2024-02-04T08:07:31;0.33;;;0.30;;
357;SDS011;167;47.558;7.602;2024-02-04T08:09:57;0.30;;;0.30;;
357;SDS011;167;47.558;7.602;2024-02-04T08:12:23;0.30;;;0.30;;
357;SDS011;167;47.558;7.602;2024-02-04T08:14:49;0.30;;;0.30;;
357;SDS011;167;47.558;7.602;2024-02-04T08:17:15;0.30;;;0.30;;
357;SDS011;167;47.558;7.602;2024-02-04T08:19:41;0.80;;;0.80;;
357;SDS011;167;47.558;7.602;2024-02-04T08:22:07;0.40;;;0.40;;
357;SDS011;167;47.558;7.602;2024-02-04T08:24:34;0.33;;;0.33;;
357;SDS011;167;47.558;7.602;2024-02-04T08:27:00;0.30;;;0.30;;
357;SDS011;167;47.558;7.602;2024-02-04T08:29:26;0.30;;;0.30;;
357;SDS011;167;47.558;7.602;2024-02-04T08:31:52;0.63;;;0.63;;
357;SDS011;167;47.558;7.602;2024-02-04T08:34:18;0.47;;;0.40;;
357;SDS011;167;47.558;7.602;2024-02-04T08:36:51;0.30;;;0.30;;
357;SDS011;167;47.558;7.602;2024-02-04T08:39:17;0.30;;;0.30;;
357;SDS011;167;47.558;7.602;2024-02-04T08:41:43;0.63;;;0.50;;
357;SDS011;167;47.558;7.602;2024-02-04T08:44:09;0.30;;;0.30;;
357;SDS011;167;47.558;7.602;2024-02-04T08:46:35;0.40;;;0.40;;
357;SDS011;167;47.558;7.602;2024-02-04T08:49:01;0.40;;;0.40;;
357;SDS011;167;47.558;7.602;2024-02-04T08:51:27;0.30;;;0.30;;
357;SDS011;167;47.558;7.602;2024-02-04T08:53:52;0.30;;;0.30;;
357;SDS011;167;47.558;7.602;2024-02-04T08:56:18;0.30;;;0.30;;
357;SDS011;167;47.558;7.602;2024-02-04T08:58:45;1.50;;;1.33;;
357;SDS011;167;47.558;7.602;2024-02-04T09:01:11;0.40;;;0.40;;
357;SDS011;167;47.558;7.602;2024-02-04T09:03:37;0.40;;;0.40;;
357;SDS011;167;47.558;7.602;2024-02-04T09:06:03;0.37;;;0.37;;
357;SDS011;167;47.558;7.602;2024-02-04T09:08:29;0.40;;;0.40;;
357;SDS011;167;47.558;7.602;2024-02-04T09:10:55;0.30;;;0.30;;
357;SDS011;167;47.558;7.602;2024-02-04T09:13:22;0.37;;;0.30;;
357;SDS011;167;47.558;7.602;2024-02-04T09:15:49;0.30;;;0.30;;
357;SDS011;167;47.558;7.602;2024-02-04T09:18:15;0.30;;;0.30;;
357;SDS011;167;47.558;7.602;2024-02-04T09:20:41;0.30;;;0.30;;
357;SDS011;167;47.558;7.602;2024-02-04T09:23:07;0.30;;;0.30;;
357;SDS011;167;47.558;7.602;2024-02-04T09:25:33;0.30;;;0.30;;
357;SDS011;167;47.558;7.602;2024-02-04T09:27:59;0.30;;;0.30;;
357;SDS011;167;47.558;7.602;2024-02-04T09:30:25;0.30;;;0.30;;
357;SDS011;167;47.558;7.602;2024-02-04T09:32:51;0.30;;;0.30;;
357;SDS011;167;47.558;7.602;2024-02-04T09:35:17;0.30;;;0.30;;
357;SDS011;167;47.558;7.602;2024-02-04T09:37:44;0.30;;;0.30;;
357;SDS011;167;47.558;7.602;2024-02-04T09:40:10;0.30;;;0.30;;
357;SDS011;167;47.558;7.602;2024-02-04T09:42:36;0.40;;;0.40;;
357;SDS011;167;47.558;7.602;2024-02-04T09:45:02;0.30;;;0.30;;
357;SDS011;167;47.558;7.602;2024-02-04T09:47:28;0.30;;;0.30;;
357;SDS011;167;47.558;7.602;2024-02-04T09:49:54;0.30;;;0.30;;
357;SDS011;167;47.558;7.602;2024-02-04T09:52:21;0.40;;;0.40;;
357;SDS011;167;47.558;7.602;2024-02-04T09:55:00;0.40;;;0.40;;
357;SDS011;167;47.558;7.602;2024-02-04T09:57:26;0.30;;;0.30;;
357;SDS011;167;47.558;7.602;2024-02-04T09:59:53;0.53;;;0.40;;
357;SDS011;167;47.558;7.602;2024-02-04T10:02:20;0.33;;;0.33;;
357;SDS011;167;47.558;7.602;2024-02-04T10:04:46;0.30;;;0.30;;
357;SDS011;167;47.558;7.602;2024-02-04T10:07:12;0.30;;;0.30;;
357;SDS011;167;47.558;7.602;2024-02-04T10:09:41;0.30;;;0.30;;
357;SDS011;167;47.558;7.602;2024-02-04T10:12:07;0.57;;;0.57;;
357;SDS011;167;47.558;7.602;2024-02-04T10:14:33;0.30;;;0.30;;
357;SDS011;167;47.558;7.602;2024-02-04T10:16:59;0.30;;;0.30;;
357;SDS011;167;47.558;7.602;2024-02-04T10:19:26;0.40;;;0.37;;
357;SDS011;167;47.558;7.602;2024-02-04T10:21:59;0.30;;;0.30;;
357;SDS011;167;47.558;7.602;2024-02-04T10:24:25;0.40;;;0.40;;
357;SDS011;167;47.558;7.602;2024-02-04T10:26:51;0.30;;;0.30;;
357;SDS011;167;47.558;7.602;2024-02-04T10:29:18;0.30;;;0.30;;
357;SDS011;167;47.558;7.602;2024-02-04T10:31:45;0.30;;;0.30;;
357;SDS011;167;47.558;7.602;2024-02-04T10:34:11;0.30;;;0.30;;
357;SDS011;167;47.558;7.602;2024-02-04T10:36:37;0.30;;;0.30;;
357;SDS011;167;47.558;7.602;2024-02-04T10:39:03;0.40;;;0.40;;
357;SDS011;167;47.558;7.602;2024-02-04T10:41:29;0.30;;;0.30;;
357;SDS011;167;47.558;7.602;2024-02-04T10:43:57;0.30;;;0.30;;
357;SDS011;167;47.558;7.602;2024-02-04T10:46:24;0.60;;;0.33;;
357;SDS011;167;47.558;7.602;2024-02-04T10:48:55;0.53;;;0.50;;
357;SDS011;167;47.558;7.602;2024-02-04T10:51:24;0.43;;;0.40;;
357;SDS011;167;47.558;7.602;2024-02-04T10:53:51;0.60;;;0.57;;
357;SDS011;167;47.558;7.602;2024-02-04T10:56:22;0.60;;;0.60;;
357;SDS011;167;47.558;7.602;2024-02-04T10:58:48;0.40;;;0.40;;
357;SDS011;167;47.558;7.602;2024-02-04T11:01:14;0.20;;;0.20;;
357;SDS011;167;47.558;7.602;2024-02-04T11:03:41;0.40;;;0.40;;
357;SDS011;167;47.558;7.602;2024-02-04T11:06:09;0.30;;;0.30;;
357;SDS011;167;47.558;7.602;2024-02-04T11:08:36;0.40;;;0.40;;
357;SDS011;167;47.558;7.602;2024-02-04T11:11:03;0.30;;;0.30;;
357;SDS011;167;47.558;7.602;2024-02-04T11:13:29;0.40;;;0.40;;
357;SDS011;167;47.558;7.602;2024-02-04T11:15:57;0.40;;;0.40;;
357;SDS011;167;47.558;7.602;2024-02-04T11:23:55;0.30;;;0.30;;
357;SDS011;167;47.558;7.602;2024-02-04T11:26:25;0.40;;;0.40;;
357;SDS011;167;47.558;7.602;2024-02-04T11:28:51;0.40;;;0.40;;
357;SDS011;167;47.558;7.602;2024-02-04T11:31:17;0.53;;;0.53;;
357;SDS011;167;47.558;7.602;2024-02-04T11:33:44;0.30;;;0.30;;
357;SDS011;167;47.558;7.602;2024-02-04T11:36:14;0.30;;;0.30;;
357;SDS011;167;47.558;7.602;2024-02-04T11:38:43;0.33;;;0.33;;
357;SDS011;167;47.558;7.602;2024-02-04T11:41:20;0.30;;;0.30;;
357;SDS011;167;47.558;7.602;2024-02-04T11:43:47;0.30;;;0.30;;
357;SDS011;167;47.558;7.602;2024-02-04T11:46:16;0.40;;;0.40;;
357;SDS011;167;47.558;7.602;2024-02-04T11:48:50;0.30;;;0.30;;
357;SDS011;167;47.558;7.602;2024-02-04T11:51:18;0.40;;;0.40;;
357;SDS011;167;47.558;7.602;2024-02-04T11:53:44;0.40;;;0.40;;
357;SDS011;167;47.558;7.602;2024-02-04T11:56:10;0.30;;;0.30;;
357;SDS011;167;47.558;7.602;2024-02-04T11:58:37;0.30;;;0.30;;
357;SDS011;167;47.558;7.602;2024-02-04T12:01:05;0.53;;;0.40;;
357;SDS011;167;47.558;7.602;2024-02-04T12:03:35;0.40;;;0.40;;
357;SDS011;167;47.558;7.602;2024-02-04T12:06:02;0.47;;;0.47;;
357;SDS011;167;47.558;7.602;2024-02-04T12:08:29;0.30;;;0.30;;
357;SDS011;167;47.558;7.602;2024-02-04T12:10:55;0.40;;;0.40;;
357;SDS011;167;47.558;7.602;2024-02-04T12:13:22;0.40;;;0.40;;
357;SDS011;167;47.558;7.602;2024-02-04T12:15:48;0.50;;;0.50;;
357;SDS011;167;47.558;7.602;2024-02-04T12:18:14;0.30;;;0.30;;
357;SDS011;167;47.558;7.602;2024-02-04T12:20:43;0.60;;;0.60;;
357;SDS011;167;47.558;7.602;2024-02-04T12:23:09;0.40;;;0.40;;
357;SDS011;167;47.558;7.602;2024-02-04T12:25:36;0.40;;;0.40;;
357;SDS011;167;47.558;7.602;2024-02-04T12:28:02;0.40;;;0.40;;
357;SDS011;167;47.558;7.602;2024-02-04T12:30:29;0.60;;;0.60;;
357;SDS011;167;47.558;7.602;2024-02-04T12:32:58;0.40;;;0.40;;
357;SDS011;167;47.558;7.602;2024-02-04T12:35:27;0.40;;;0.40;;
357;SDS011;167;47.558;7.602;2024-02-04T12:37:54;0.63;;;0.43;;
357;SDS011;167;47.558;7.602;2024-02-04T12:40:27;0.40;;;0.40;;
357;SDS011;167;47.558;7.602;2024-02-04T12:42:54;0.57;;;0.57;;
357;SDS011;167;47.558;7.602;2024-02-04T12:45:23;0.50;;;0.50;;
357;SDS011;167;47.558;7.602;2024-02-04T12:47:50;0.40;;;0.40;;
357;SDS011;167;47.558;7.602;2024-02-04T12:50:17;0.67;;;0.50;;
357;SDS011;167;47.558;7.602;2024-02-04T12:52:44;0.33;;;0.33;;
357;SDS011;167;47.558;7.602;2024-02-04T12:55:24;0.50;;;0.50;;
357;SDS011;167;47.558;7.602;2024-02-04T12:57:50;0.60;;;0.60;;
357;SDS011;167;47.558;7.602;2024-02-04T13:00:20;0.50;;;0.50;;
357;SDS011;167;47.558;7.602;2024-02-04T13:02:49;0.50;;;0.50;;
357;SDS011;167;47.558;7.602;2024-02-04T13:05:22;0.67;;;0.67;;
357;SDS011;167;47.558;7.602;2024-02-04T13:07:54;0.90;;;0.60;;
357;SDS011;167;47.558;7.602;2024-02-04T13:10:24;0.67;;;0.67;;
357;SDS011;167;47.558;7.602;2024-02-04T13:13:06;0.50;;;0.50;;
357;SDS011;167;47.558;7.602;2024-02-04T13:15:40;1.73;;;0.60;;
357;SDS011;167;47.558;7.602;2024-02-04T13:18:07;0.50;;;0.50;;
357;SDS011;167;47.558;7.602;2024-02-04T13:20:33;0.40;;;0.40;;
357;SDS011;167;47.558;7.602;2024-02-04T13:22:59;0.47;;;0.47;;
357;SDS011;167;47.558;7.602;2024-02-04T13:25:25;0.60;;;0.60;;
357;SDS011;167;47.558;7.602;2024-02-04T13:27:51;1.80;;;0.93;;
357;SDS011;167;47.558;7.602;2024-02-04T13:30:18;0.50;;;0.50;;
357;SDS011;167;47.558;7.602;2024-02-04T13:32:44;1.97;;;0.90;;
357;SDS011;167;47.558;7.602;2024-02-04T13:35:10;0.50;;;0.50;;
357;SDS011;167;47.558;7.602;2024-02-04T13:37:42;0.60;;;0.60;;
357;SDS011;167;47.558;7.602;2024-02-04T13:40:16;0.70;;;0.70;;
357;SDS011;167;47.558;7.602;2024-02-04T13:42:42;0.57;;;0.50;;
357;SDS011;167;47.558;7.602;2024-02-04T13:45:08;0.70;;;0.70;;
357;SDS011;167;47.558;7.602;2024-02-04T13:47:34;0.50;;;0.50;;
357;SDS011;167;47.558;7.602;2024-02-04T13:50:00;0.67;;;0.67;;
357;SDS011;167;47.558;7.602;2024-02-04T13:52:27;1.17;;;0.50;;
357;SDS011;167;47.558;7.602;2024-02-04T13:54:53;0.60;;;0.60;;
357;SDS011;167;47.558;7.602;2024-02-04T13:57:19;0.77;;;0.70;;
357;SDS011;167;47.558;7.602;2024-02-04T13:59:45;0.50;;;0.50;;
357;SDS011;167;47.558;7.602;2024-02-04T14:02:11;0.60;;;0.60;;
357;SDS011;167;47.558;7.602;2024-02-04T14:04:37;1.03;;;0.77;;
357;SDS011;167;47.558;7.602;2024-02-04T14:07:03;0.70;;;0.70;;
357;SDS011;167;47.558;7.602;2024-02-04T14:09:29;0.50;;;0.50;;
357;SDS011;167;47.558;7.602;2024-02-04T14:11:55;0.70;;;0.70;;
357;SDS011;167;47.558;7.602;2024-02-04T14:14:25;1.20;;;0.60;;
357;SDS011;167;47.558;7.602;2024-02-04T14:16:51;0.93;;;0.73;;
357;SDS011;167;47.558;7.602;2024-02-04T14:19:17;0.80;;;0.80;;
357;SDS011;167;47.558;7.602;2024-02-04T14:21:43;0.80;;;0.80;;
357;SDS011;167;47.558;7.602;2024-02-04T14:24:09;1.23;;;0.97;;
357;SDS011;167;47.558;7.602;2024-02-04T14:26:35;0.80;;;0.70;;
357;SDS011;167;47.558;7.602;2024-02-04T14:29:01;0.77;;;0.77;;
357;SDS011;167;47.558;7.602;2024-02-04T14:31:27;0.90;;;0.90;;
357;SDS011;167;47.558;7.602;2024-02-04T14:33:53;0.40;;;0.40;;
357;SDS011;167;47.558;7.602;2024-02-04T14:36:19;0.83;;;0.80;;
357;SDS011;167;47.558;7.602;2024-02-04T14:38:45;0.60;;;0.60;;
357;SDS011;167;47.558;7.602;2024-02-04T14:41:11;1.70;;;0.97;;
357;SDS011;167;47.558;7.602;2024-02-04T14:43:37;1.00;;;0.90;;
357;SDS011;167;47.558;7.602;2024-02-04T14:46:03;0.70;;;0.70;;
357;SDS011;167;47.558;7.602;2024-02-04T14:48:29;1.10;;;0.73;;
357;SDS011;167;47.558;7.602;2024-02-04T14:50:55;0.67;;;0.67;;
357;SDS011;167;47.558;7.602;2024-02-04T14:53:24;0.80;;;0.80;;
357;SDS011;167;47.558;7.602;2024-02-04T14:55:50;2.87;;;0.60;;
357;SDS011;167;47.558;7.602;2024-02-04T14:58:16;0.53;;;0.53;;
357;SDS011;167;47.558;7.602;2024-02-04T15:00:42;0.90;;;0.90;;
357;SDS011;167;47.558;7.602;2024-02-04T15:03:09;0.80;;;0.80;;
357;SDS011;167;47.558;7.602;2024-02-04T15:05:35;1.43;;;1.13;;
357;SDS011;167;47.558;7.602;2024-02-04T15:08:01;1.10;;;1.00;;
357;SDS011;167;47.558;7.602;2024-02-04T15:10:27;1.23;;;1.13;;
357;SDS011;167;47.558;7.602;2024-02-04T15:12:53;1.40;;;0.87;;
357;SDS011;167;47.558;7.602;2024-02-04T15:15:19;0.97;;;0.77;;
357;SDS011;167;47.558;7.602;2024-02-04T15:17:45;1.07;;;0.87;;
357;SDS011;167;47.558;7.602;2024-02-04T15:20:11;2.17;;;1.17;;
357;SDS011;167;47.558;7.602;2024-02-04T15:22:39;1.87;;;1.10;;
357;SDS011;167;47.558;7.602;2024-02-04T15:25:05;0.80;;;0.80;;
357;SDS011;167;47.558;7.602;2024-02-04T15:27:32;0.90;;;0.90;;
357;SDS011;167;47.558;7.602;2024-02-04T15:29:58;1.27;;;0.90;;
357;SDS011;167;47.558;7.602;2024-02-04T15:32:24;1.57;;;0.90;;
357;SDS011;167;47.558;7.602;2024-02-04T15:34:50;0.80;;;0.80;;
357;SDS011;167;47.558;7.602;2024-02-04T15:37:17;1.63;;;0.90;;
357;SDS011;167;47.558;7.602;2024-02-04T15:39:44;1.53;;;0.90;;
357;SDS011;167;47.558;7.602;2024-02-04T15:42:10;1.20;;;1.10;;
357;SDS011;167;47.558;7.602;2024-02-04T15:44:36;1.33;;;1.00;;
357;SDS011;167;47.558;7.602;2024-02-04T15:47:05;1.50;;;1.37;;
357;SDS011;167;47.558;7.602;2024-02-04T15:49:36;2.17;;;1.63;;
357;SDS011;167;47.558;7.602;2024-02-04T15:52:03;1.07;;;1.00;;